sensor_id;sensor_type;location;lat;lon;timestamp;P1;durP1;ratioP1;P2;durP2;ratioP2
15706;SDS011;7953;54.302;10.128;2022-10-16T00:02:14;14.70;;;11.03;;
15706;SDS011;7953;54.302;10.128;2022-10-16T00:04:41;15.13;;;10.93;;
15706;SDS011;7953;54.302;10.128;2022-10-16T00:07:08;15.10;;;11.67;;
15706;SDS011;7953;54.302;10.128;2022-10-16T00:09:36;14.60;;;10.93;;
15706;SDS011;7953;54.302;10.128;2022-10-16T00:12:03;17.50;;;11.70;;
15706;SDS011;7953;54.302;10.128;2022-10-16T00:14:31;13.40;;;11.37;;
15706;SDS011;7953;54.302;10.128;2022-10-16T00:16:58;13.53;;;10.77;;
15706;SDS011;7953;54.302;10.128;2022-10-16T00:19:25;14.20;;;11.30;;
15706;SDS011;7953;54.302;10.128;2022-10-16T00:21:52;13.90;;;10.70;;
15706;SDS011;7953;54.302;10.128;2022-10-16T00:24:19;12.63;;;10.57;;
15706;SDS011;7953;54.302;10.128;2022-10-16T00:26:49;17.67;;;11.03;;
15706;SDS011;7953;54.302;10.128;2022-10-16T00:29:16;14.37;;;10.73;;
15706;SDS011;7953;54.302;10.128;2022-10-16T00:31:43;13.33;;;10.47;;
15706;SDS011;7953;54.302;10.128;2022-10-16T00:34:10;13.67;;;10.03;;
15706;SDS011;7953;54.302;10.128;2022-10-16T00:36:37;11.83;;;9.00;;
15706;SDS011;7953;54.302;10.128;2022-10-16T00:39:04;17.13;;;9.77;;
15706;SDS011;7953;54.302;10.128;2022-10-16T00:41:31;13.00;;;9.80;;
15706;SDS011;7953;54.302;10.128;2022-10-16T00:44:00;15.63;;;9.90;;
15706;SDS011;7953;54.302;10.128;2022-10-16T00:46:29;12.13;;;9.27;;
15706;SDS011;7953;54.302;10.128;2022-10-16T00:49:02;11.03;;;8.70;;
15706;SDS011;7953;54.302;10.128;2022-10-16T00:51:33;13.80;;;8.30;;
15706;SDS011;7953;54.302;10.128;2022-10-16T00:54:02;12.30;;;9.70;;
15706;SDS011;7953;54.302;10.128;2022-10-16T00:56:32;12.93;;;8.70;;
15706;SDS011;7953;54.302;10.128;2022-10-16T00:59:01;11.23;;;7.97;;
15706;SDS011;7953;54.302;10.128;2022-10-16T01:01:29;11.83;;;8.10;;
15706;SDS011;7953;54.302;10.128;2022-10-16T01:03:56;11.47;;;8.43;;
15706;SDS011;7953;54.302;10.128;2022-10-16T01:06:24;12.83;;;9.20;;
15706;SDS011;7953;54.302;10.128;2022-10-16T01:08:58;11.93;;;8.37;;
15706;SDS011;7953;54.302;10.128;2022-10-16T01:11:33;11.03;;;8.57;;
15706;SDS011;7953;54.302;10.128;2022-10-16T01:14:11;12.20;;;7.60;;
15706;SDS011;7953;54.302;10.128;2022-10-16T01:16:46;10.33;;;8.43;;
15706;SDS011;7953;54.302;10.128;2022-10-16T01:19:20;14.80;;;9.20;;
15706;SDS011;7953;54.302;10.128;2022-10-16T01:21:57;16.40;;;8.77;;
15706;SDS011;7953;54.302;10.128;2022-10-16T01:24:27;11.97;;;8.00;;
15706;SDS011;7953;54.302;10.128;2022-10-16T01:27:08;15.07;;;9.00;;
15706;SDS011;7953;54.302;10.128;2022-10-16T01:29:38;13.83;;;8.53;;
15706;SDS011;7953;54.302;10.128;2022-10-16T01:32:10;18.63;;;8.73;;
15706;SDS011;7953;54.302;10.128;2022-10-16T01:34:42;15.50;;;9.60;;
15706;SDS011;7953;54.302;10.128;2022-10-16T01:37:15;12.33;;;8.77;;
15706;SDS011;7953;54.302;10.128;2022-10-16T01:39:47;11.87;;;8.73;;
15706;SDS011;7953;54.302;10.128;2022-10-16T01:42:19;12.70;;;9.10;;
15706;SDS011;7953;54.302;10.128;2022-10-16T01:44:48;10.90;;;9.17;;
15706;SDS011;7953;54.302;10.128;2022-10-16T01:47:17;11.40;;;8.73;;
15706;SDS011;7953;54.302;10.128;2022-10-16T01:49:46;11.57;;;8.43;;
15706;SDS011;7953;54.302;10.128;2022-10-16T01:52:14;14.20;;;8.43;;
15706;SDS011;7953;54.302;10.128;2022-10-16T01:54:43;15.80;;;8.73;;
15706;SDS011;7953;54.302;10.128;2022-10-16T01:57:13;9.57;;;8.30;;
15706;SDS011;7953;54.302;10.128;2022-10-16T01:59:46;10.67;;;7.97;;
15706;SDS011;7953;54.302;10.128;2022-10-16T02:02:17;12.53;;;8.03;;
15706;SDS011;7953;54.302;10.128;2022-10-16T02:04:46;11.33;;;8.23;;
15706;SDS011;7953;54.302;10.128;2022-10-16T02:07:15;12.27;;;8.43;;
15706;SDS011;7953;54.302;10.128;2022-10-16T02:09:42;11.50;;;7.97;;
15706;SDS011;7953;54.302;10.128;2022-10-16T02:12:12;13.07;;;8.43;;
15706;SDS011;7953;54.302;10.128;2022-10-16T02:14:46;9.47;;;7.30;;
15706;SDS011;7953;54.302;10.128;2022-10-16T02:17:14;12.80;;;8.17;;
15706;SDS011;7953;54.302;10.128;2022-10-16T02:19:42;11.53;;;8.93;;
15706;SDS011;7953;54.302;10.128;2022-10-16T02:22:14;12.53;;;8.50;;
15706;SDS011;7953;54.302;10.128;2022-10-16T02:24:48;12.27;;;8.90;;
15706;SDS011;7953;54.302;10.128;2022-10-16T02:27:20;14.33;;;8.43;;
15706;SDS011;7953;54.302;10.128;2022-10-16T02:29:55;13.43;;;8.73;;
15706;SDS011;7953;54.302;10.128;2022-10-16T02:32:27;14.27;;;8.57;;
15706;SDS011;7953;54.302;10.128;2022-10-16T02:34:57;13.93;;;9.67;;
15706;SDS011;7953;54.302;10.128;2022-10-16T02:37:26;13.63;;;8.60;;
15706;SDS011;7953;54.302;10.128;2022-10-16T02:39:55;13.13;;;8.00;;
15706;SDS011;7953;54.302;10.128;2022-10-16T02:42:27;11.10;;;8.63;;
15706;SDS011;7953;54.302;10.128;2022-10-16T02:44:57;9.80;;;8.07;;
15706;SDS011;7953;54.302;10.128;2022-10-16T02:47:24;11.30;;;7.80;;
15706;SDS011;7953;54.302;10.128;2022-10-16T02:49:51;10.47;;;8.07;;
15706;SDS011;7953;54.302;10.128;2022-10-16T02:52:18;12.97;;;8.97;;
15706;SDS011;7953;54.302;10.128;2022-10-16T02:54:45;9.77;;;7.30;;
15706;SDS011;7953;54.302;10.128;2022-10-16T02:57:12;12.90;;;7.93;;
15706;SDS011;7953;54.302;10.128;2022-10-16T02:59:39;9.90;;;7.40;;
15706;SDS011;7953;54.302;10.128;2022-10-16T03:02:07;13.70;;;7.73;;
15706;SDS011;7953;54.302;10.128;2022-10-16T03:04:34;11.00;;;7.70;;
15706;SDS011;7953;54.302;10.128;2022-10-16T03:07:02;12.87;;;7.57;;
15706;SDS011;7953;54.302;10.128;2022-10-16T03:09:29;11.83;;;7.53;;
15706;SDS011;7953;54.302;10.128;2022-10-16T03:11:56;8.80;;;7.10;;
15706;SDS011;7953;54.302;10.128;2022-10-16T03:14:23;8.97;;;6.60;;
15706;SDS011;7953;54.302;10.128;2022-10-16T03:16:50;9.30;;;6.80;;
15706;SDS011;7953;54.302;10.128;2022-10-16T03:19:18;7.17;;;6.00;;
15706;SDS011;7953;54.302;10.128;2022-10-16T03:21:45;10.17;;;6.27;;
15706;SDS011;7953;54.302;10.128;2022-10-16T03:24:12;10.40;;;6.57;;
15706;SDS011;7953;54.302;10.128;2022-10-16T03:26:39;10.33;;;6.37;;
15706;SDS011;7953;54.302;10.128;2022-10-16T03:29:06;8.33;;;6.23;;
15706;SDS011;7953;54.302;10.128;2022-10-16T03:31:33;10.63;;;6.40;;
15706;SDS011;7953;54.302;10.128;2022-10-16T03:34:00;6.63;;;5.07;;
15706;SDS011;7953;54.302;10.128;2022-10-16T03:36:28;7.77;;;4.90;;
15706;SDS011;7953;54.302;10.128;2022-10-16T03:38:55;7.67;;;5.03;;
15706;SDS011;7953;54.302;10.128;2022-10-16T03:41:21;5.63;;;4.47;;
15706;SDS011;7953;54.302;10.128;2022-10-16T03:43:48;10.00;;;4.83;;
15706;SDS011;7953;54.302;10.128;2022-10-16T03:46:16;4.83;;;3.90;;
15706;SDS011;7953;54.302;10.128;2022-10-16T03:48:43;6.20;;;3.83;;
15706;SDS011;7953;54.302;10.128;2022-10-16T03:51:09;7.07;;;4.87;;
15706;SDS011;7953;54.302;10.128;2022-10-16T03:53:38;7.20;;;4.47;;
15706;SDS011;7953;54.302;10.128;2022-10-16T03:56:05;8.37;;;4.67;;
15706;SDS011;7953;54.302;10.128;2022-10-16T03:58:32;7.97;;;4.00;;
15706;SDS011;7953;54.302;10.128;2022-10-16T04:00:59;6.00;;;3.50;;
15706;SDS011;7953;54.302;10.128;2022-10-16T04:03:26;4.50;;;3.27;;
15706;SDS011;7953;54.302;10.128;2022-10-16T04:05:53;6.30;;;3.87;;
15706;SDS011;7953;54.302;10.128;2022-10-16T04:08:20;5.37;;;3.10;;
15706;SDS011;7953;54.302;10.128;2022-10-16T04:10:48;5.47;;;3.23;;
15706;SDS011;7953;54.302;10.128;2022-10-16T04:13:15;8.70;;;3.70;;
15706;SDS011;7953;54.302;10.128;2022-10-16T04:15:42;6.70;;;2.90;;
15706;SDS011;7953;54.302;10.128;2022-10-16T04:18:11;4.17;;;2.83;;
15706;SDS011;7953;54.302;10.128;2022-10-16T04:20:38;5.07;;;3.03;;
15706;SDS011;7953;54.302;10.128;2022-10-16T04:23:05;7.03;;;2.90;;
15706;SDS011;7953;54.302;10.128;2022-10-16T04:25:32;7.23;;;3.40;;
15706;SDS011;7953;54.302;10.128;2022-10-16T04:28:00;6.60;;;3.13;;
15706;SDS011;7953;54.302;10.128;2022-10-16T04:30:27;6.27;;;2.80;;
15706;SDS011;7953;54.302;10.128;2022-10-16T04:32:54;5.57;;;3.00;;
15706;SDS011;7953;54.302;10.128;2022-10-16T04:35:21;8.60;;;4.00;;
15706;SDS011;7953;54.302;10.128;2022-10-16T04:37:48;5.93;;;2.60;;
15706;SDS011;7953;54.302;10.128;2022-10-16T04:40:15;4.77;;;2.30;;
15706;SDS011;7953;54.302;10.128;2022-10-16T04:42:42;3.63;;;2.43;;
15706;SDS011;7953;54.302;10.128;2022-10-16T04:45:11;5.40;;;2.50;;
15706;SDS011;7953;54.302;10.128;2022-10-16T04:47:37;4.73;;;2.30;;
15706;SDS011;7953;54.302;10.128;2022-10-16T04:50:05;3.90;;;2.00;;
15706;SDS011;7953;54.302;10.128;2022-10-16T04:52:32;9.13;;;2.67;;
15706;SDS011;7953;54.302;10.128;2022-10-16T04:54:59;3.60;;;2.10;;
15706;SDS011;7953;54.302;10.128;2022-10-16T04:57:27;4.13;;;2.50;;
15706;SDS011;7953;54.302;10.128;2022-10-16T04:59:54;6.40;;;2.83;;
15706;SDS011;7953;54.302;10.128;2022-10-16T05:02:23;5.87;;;2.50;;
15706;SDS011;7953;54.302;10.128;2022-10-16T05:04:50;3.20;;;2.70;;
15706;SDS011;7953;54.302;10.128;2022-10-16T05:07:17;3.47;;;2.57;;
15706;SDS011;7953;54.302;10.128;2022-10-16T05:09:44;5.10;;;2.47;;
15706;SDS011;7953;54.302;10.128;2022-10-16T05:12:11;5.97;;;2.70;;
15706;SDS011;7953;54.302;10.128;2022-10-16T05:14:37;3.17;;;2.30;;
15706;SDS011;7953;54.302;10.128;2022-10-16T05:17:04;5.33;;;2.77;;
15706;SDS011;7953;54.302;10.128;2022-10-16T05:19:33;5.77;;;2.37;;
15706;SDS011;7953;54.302;10.128;2022-10-16T05:21:59;3.87;;;2.23;;
15706;SDS011;7953;54.302;10.128;2022-10-16T05:24:26;4.00;;;2.30;;
15706;SDS011;7953;54.302;10.128;2022-10-16T05:26:53;4.77;;;2.60;;
15706;SDS011;7953;54.302;10.128;2022-10-16T05:29:20;5.10;;;1.90;;
15706;SDS011;7953;54.302;10.128;2022-10-16T05:31:49;2.57;;;2.20;;
15706;SDS011;7953;54.302;10.128;2022-10-16T05:34:17;3.83;;;1.83;;
15706;SDS011;7953;54.302;10.128;2022-10-16T05:36:45;5.93;;;2.27;;
15706;SDS011;7953;54.302;10.128;2022-10-16T05:39:13;8.00;;;3.03;;
15706;SDS011;7953;54.302;10.128;2022-10-16T05:41:41;4.10;;;2.17;;
15706;SDS011;7953;54.302;10.128;2022-10-16T05:44:08;4.60;;;2.00;;
15706;SDS011;7953;54.302;10.128;2022-10-16T05:46:35;4.30;;;2.20;;
15706;SDS011;7953;54.302;10.128;2022-10-16T05:49:02;5.00;;;2.17;;
15706;SDS011;7953;54.302;10.128;2022-10-16T05:51:29;4.70;;;2.07;;
15706;SDS011;7953;54.302;10.128;2022-10-16T05:53:58;3.30;;;1.83;;
15706;SDS011;7953;54.302;10.128;2022-10-16T05:56:24;5.20;;;2.47;;
15706;SDS011;7953;54.302;10.128;2022-10-16T05:58:51;4.33;;;2.27;;
15706;SDS011;7953;54.302;10.128;2022-10-16T06:01:18;2.47;;;1.80;;
15706;SDS011;7953;54.302;10.128;2022-10-16T06:03:49;5.77;;;2.20;;
15706;SDS011;7953;54.302;10.128;2022-10-16T06:06:16;5.13;;;1.80;;
15706;SDS011;7953;54.302;10.128;2022-10-16T06:08:45;2.17;;;1.70;;
15706;SDS011;7953;54.302;10.128;2022-10-16T06:11:15;5.70;;;2.17;;
15706;SDS011;7953;54.302;10.128;2022-10-16T06:13:43;2.93;;;1.90;;
15706;SDS011;7953;54.302;10.128;2022-10-16T06:16:11;3.37;;;1.87;;
15706;SDS011;7953;54.302;10.128;2022-10-16T06:18:38;2.83;;;1.80;;
15706;SDS011;7953;54.302;10.128;2022-10-16T06:21:09;3.47;;;2.27;;
15706;SDS011;7953;54.302;10.128;2022-10-16T06:23:37;4.40;;;1.83;;
15706;SDS011;7953;54.302;10.128;2022-10-16T06:26:04;4.03;;;2.33;;
15706;SDS011;7953;54.302;10.128;2022-10-16T06:28:33;8.30;;;2.10;;
15706;SDS011;7953;54.302;10.128;2022-10-16T06:31:00;4.27;;;2.13;;
15706;SDS011;7953;54.302;10.128;2022-10-16T06:33:29;3.40;;;1.60;;
15706;SDS011;7953;54.302;10.128;2022-10-16T06:36:00;5.00;;;2.33;;
15706;SDS011;7953;54.302;10.128;2022-10-16T06:38:27;4.27;;;1.87;;
15706;SDS011;7953;54.302;10.128;2022-10-16T06:40:54;6.70;;;1.90;;
15706;SDS011;7953;54.302;10.128;2022-10-16T06:43:21;3.83;;;1.70;;
15706;SDS011;7953;54.302;10.128;2022-10-16T06:45:51;5.90;;;1.70;;
15706;SDS011;7953;54.302;10.128;2022-10-16T06:48:18;3.63;;;1.60;;
15706;SDS011;7953;54.302;10.128;2022-10-16T06:50:54;4.93;;;1.60;;
15706;SDS011;7953;54.302;10.128;2022-10-16T06:53:22;5.87;;;1.70;;
15706;SDS011;7953;54.302;10.128;2022-10-16T06:55:49;8.93;;;1.93;;
15706;SDS011;7953;54.302;10.128;2022-10-16T06:58:15;4.23;;;1.40;;
15706;SDS011;7953;54.302;10.128;2022-10-16T07:00:42;4.57;;;1.67;;
15706;SDS011;7953;54.302;10.128;2022-10-16T07:03:10;3.03;;;1.33;;
15706;SDS011;7953;54.302;10.128;2022-10-16T07:05:38;3.10;;;1.50;;
15706;SDS011;7953;54.302;10.128;2022-10-16T07:08:05;5.30;;;1.77;;
15706;SDS011;7953;54.302;10.128;2022-10-16T07:10:31;6.40;;;1.70;;
15706;SDS011;7953;54.302;10.128;2022-10-16T07:12:58;4.37;;;1.93;;
15706;SDS011;7953;54.302;10.128;2022-10-16T07:15:25;4.50;;;1.70;;
15706;SDS011;7953;54.302;10.128;2022-10-16T07:17:52;8.47;;;2.17;;
15706;SDS011;7953;54.302;10.128;2022-10-16T07:20:21;3.03;;;1.70;;
15706;SDS011;7953;54.302;10.128;2022-10-16T07:22:48;2.27;;;1.53;;
15706;SDS011;7953;54.302;10.128;2022-10-16T07:25:14;3.47;;;2.10;;
15706;SDS011;7953;54.302;10.128;2022-10-16T07:27:41;3.13;;;1.97;;
15706;SDS011;7953;54.302;10.128;2022-10-16T07:30:08;2.93;;;1.87;;
15706;SDS011;7953;54.302;10.128;2022-10-16T07:32:36;2.53;;;1.73;;
15706;SDS011;7953;54.302;10.128;2022-10-16T07:35:03;2.63;;;1.87;;
15706;SDS011;7953;54.302;10.128;2022-10-16T07:37:32;3.67;;;2.27;;
15706;SDS011;7953;54.302;10.128;2022-10-16T07:39:59;3.60;;;2.90;;
15706;SDS011;7953;54.302;10.128;2022-10-16T07:42:27;4.07;;;2.30;;
15706;SDS011;7953;54.302;10.128;2022-10-16T07:44:54;3.40;;;2.10;;
15706;SDS011;7953;54.302;10.128;2022-10-16T07:47:21;4.53;;;2.60;;
15706;SDS011;7953;54.302;10.128;2022-10-16T07:49:48;5.50;;;2.33;;
15706;SDS011;7953;54.302;10.128;2022-10-16T07:52:14;5.60;;;2.43;;
15706;SDS011;7953;54.302;10.128;2022-10-16T07:54:43;3.37;;;1.90;;
15706;SDS011;7953;54.302;10.128;2022-10-16T07:57:09;3.93;;;2.10;;
15706;SDS011;7953;54.302;10.128;2022-10-16T07:59:37;6.67;;;2.57;;
15706;SDS011;7953;54.302;10.128;2022-10-16T08:02:03;3.47;;;2.43;;
15706;SDS011;7953;54.302;10.128;2022-10-16T08:04:30;5.03;;;2.60;;
15706;SDS011;7953;54.302;10.128;2022-10-16T08:06:57;4.20;;;2.40;;
15706;SDS011;7953;54.302;10.128;2022-10-16T08:09:24;4.87;;;2.27;;
15706;SDS011;7953;54.302;10.128;2022-10-16T08:11:52;5.93;;;2.50;;
15706;SDS011;7953;54.302;10.128;2022-10-16T08:14:19;6.17;;;2.60;;
15706;SDS011;7953;54.302;10.128;2022-10-16T08:16:46;2.80;;;2.30;;
15706;SDS011;7953;54.302;10.128;2022-10-16T08:19:13;5.73;;;3.20;;
15706;SDS011;7953;54.302;10.128;2022-10-16T08:21:40;5.07;;;2.57;;
15706;SDS011;7953;54.302;10.128;2022-10-16T08:24:07;4.83;;;2.43;;
15706;SDS011;7953;54.302;10.128;2022-10-16T08:26:34;6.73;;;3.87;;
15706;SDS011;7953;54.302;10.128;2022-10-16T08:29:12;5.47;;;3.50;;
15706;SDS011;7953;54.302;10.128;2022-10-16T08:31:39;3.77;;;3.17;;
15706;SDS011;7953;54.302;10.128;2022-10-16T08:34:06;5.30;;;3.43;;
15706;SDS011;7953;54.302;10.128;2022-10-16T08:36:33;5.90;;;3.43;;
15706;SDS011;7953;54.302;10.128;2022-10-16T08:39:00;5.67;;;3.37;;
15706;SDS011;7953;54.302;10.128;2022-10-16T08:44:34;5.93;;;3.90;;
15706;SDS011;7953;54.302;10.128;2022-10-16T08:47:13;4.20;;;3.03;;
15706;SDS011;7953;54.302;10.128;2022-10-16T08:49:51;4.93;;;3.43;;
15706;SDS011;7953;54.302;10.128;2022-10-16T08:52:23;6.90;;;3.97;;
15706;SDS011;7953;54.302;10.128;2022-10-16T08:54:55;6.80;;;3.40;;
15706;SDS011;7953;54.302;10.128;2022-10-16T08:57:23;6.60;;;3.47;;
15706;SDS011;7953;54.302;10.128;2022-10-16T08:59:53;5.77;;;3.87;;
15706;SDS011;7953;54.302;10.128;2022-10-16T09:02:26;7.43;;;3.50;;
15706;SDS011;7953;54.302;10.128;2022-10-16T09:04:59;4.90;;;2.40;;
15706;SDS011;7953;54.302;10.128;2022-10-16T09:07:37;6.00;;;3.60;;
15706;SDS011;7953;54.302;10.128;2022-10-16T09:10:13;4.77;;;3.07;;
15706;SDS011;7953;54.302;10.128;2022-10-16T09:12:52;4.80;;;2.53;;
15706;SDS011;7953;54.302;10.128;2022-10-16T09:15:27;6.93;;;3.20;;
15706;SDS011;7953;54.302;10.128;2022-10-16T09:17:59;7.93;;;3.47;;
15706;SDS011;7953;54.302;10.128;2022-10-16T09:20:32;7.27;;;3.20;;
15706;SDS011;7953;54.302;10.128;2022-10-16T09:23:15;8.83;;;3.13;;
15706;SDS011;7953;54.302;10.128;2022-10-16T09:25:45;4.30;;;2.80;;
15706;SDS011;7953;54.302;10.128;2022-10-16T09:28:15;7.73;;;3.17;;
15706;SDS011;7953;54.302;10.128;2022-10-16T09:30:44;7.93;;;3.00;;
15706;SDS011;7953;54.302;10.128;2022-10-16T09:33:13;4.53;;;2.50;;
15706;SDS011;7953;54.302;10.128;2022-10-16T09:35:42;6.07;;;2.53;;
15706;SDS011;7953;54.302;10.128;2022-10-16T09:38:20;7.47;;;2.77;;
15706;SDS011;7953;54.302;10.128;2022-10-16T09:40:48;4.37;;;2.30;;
15706;SDS011;7953;54.302;10.128;2022-10-16T09:43:19;7.27;;;2.57;;
15706;SDS011;7953;54.302;10.128;2022-10-16T09:46:00;5.67;;;2.30;;
15706;SDS011;7953;54.302;10.128;2022-10-16T09:48:31;6.40;;;2.40;;
15706;SDS011;7953;54.302;10.128;2022-10-16T09:51:03;5.70;;;2.27;;
15706;SDS011;7953;54.302;10.128;2022-10-16T09:53:37;7.03;;;3.43;;
15706;SDS011;7953;54.302;10.128;2022-10-16T09:56:06;6.03;;;2.33;;
15706;SDS011;7953;54.302;10.128;2022-10-16T09:58:34;4.03;;;2.70;;
15706;SDS011;7953;54.302;10.128;2022-10-16T10:01:03;9.73;;;2.60;;
15706;SDS011;7953;54.302;10.128;2022-10-16T10:03:34;6.63;;;2.23;;
15706;SDS011;7953;54.302;10.128;2022-10-16T10:06:06;4.23;;;2.37;;
15706;SDS011;7953;54.302;10.128;2022-10-16T10:08:52;3.80;;;2.03;;
15706;SDS011;7953;54.302;10.128;2022-10-16T10:11:37;4.50;;;1.87;;
15706;SDS011;7953;54.302;10.128;2022-10-16T10:14:16;2.87;;;1.93;;
15706;SDS011;7953;54.302;10.128;2022-10-16T10:16:47;8.23;;;2.83;;
15706;SDS011;7953;54.302;10.128;2022-10-16T10:19:15;6.80;;;2.40;;
15706;SDS011;7953;54.302;10.128;2022-10-16T10:21:43;3.83;;;1.73;;
15706;SDS011;7953;54.302;10.128;2022-10-16T10:24:11;5.63;;;2.27;;
15706;SDS011;7953;54.302;10.128;2022-10-16T10:26:41;7.43;;;2.57;;
15706;SDS011;7953;54.302;10.128;2022-10-16T10:29:17;4.17;;;2.20;;
15706;SDS011;7953;54.302;10.128;2022-10-16T10:31:55;7.30;;;2.20;;
15706;SDS011;7953;54.302;10.128;2022-10-16T10:34:35;5.87;;;2.67;;
15706;SDS011;7953;54.302;10.128;2022-10-16T10:37:22;5.90;;;2.40;;
15706;SDS011;7953;54.302;10.128;2022-10-16T10:40:03;3.43;;;2.20;;
15706;SDS011;7953;54.302;10.128;2022-10-16T10:42:40;10.40;;;2.97;;
15706;SDS011;7953;54.302;10.128;2022-10-16T10:45:18;6.77;;;2.37;;
15706;SDS011;7953;54.302;10.128;2022-10-16T10:47:57;6.37;;;2.30;;
15706;SDS011;7953;54.302;10.128;2022-10-16T10:50:34;7.20;;;2.23;;
15706;SDS011;7953;54.302;10.128;2022-10-16T10:53:09;4.83;;;1.90;;
15706;SDS011;7953;54.302;10.128;2022-10-16T10:55:45;5.77;;;2.13;;
15706;SDS011;7953;54.302;10.128;2022-10-16T11:01:17;5.23;;;1.90;;
15706;SDS011;7953;54.302;10.128;2022-10-16T11:04:01;3.60;;;1.80;;
15706;SDS011;7953;54.302;10.128;2022-10-16T11:06:45;4.33;;;2.23;;
15706;SDS011;7953;54.302;10.128;2022-10-16T11:09:15;4.63;;;2.17;;
15706;SDS011;7953;54.302;10.128;2022-10-16T11:11:46;3.33;;;1.60;;
15706;SDS011;7953;54.302;10.128;2022-10-16T11:14:18;5.63;;;2.03;;
15706;SDS011;7953;54.302;10.128;2022-10-16T11:16:49;4.67;;;1.83;;
15706;SDS011;7953;54.302;10.128;2022-10-16T11:19:25;5.07;;;2.20;;
15706;SDS011;7953;54.302;10.128;2022-10-16T11:22:01;5.47;;;1.97;;
15706;SDS011;7953;54.302;10.128;2022-10-16T11:24:34;6.27;;;1.87;;
15706;SDS011;7953;54.302;10.128;2022-10-16T11:27:07;6.13;;;2.10;;
15706;SDS011;7953;54.302;10.128;2022-10-16T11:29:40;5.43;;;1.87;;
15706;SDS011;7953;54.302;10.128;2022-10-16T11:32:16;7.57;;;2.03;;
15706;SDS011;7953;54.302;10.128;2022-10-16T11:34:51;3.90;;;1.50;;
15706;SDS011;7953;54.302;10.128;2022-10-16T11:37:23;7.20;;;1.80;;
15706;SDS011;7953;54.302;10.128;2022-10-16T11:39:56;4.10;;;1.63;;
15706;SDS011;7953;54.302;10.128;2022-10-16T11:42:32;4.37;;;1.53;;
15706;SDS011;7953;54.302;10.128;2022-10-16T11:45:07;5.07;;;1.53;;
15706;SDS011;7953;54.302;10.128;2022-10-16T11:47:51;3.90;;;1.73;;
15706;SDS011;7953;54.302;10.128;2022-10-16T11:50:25;5.53;;;1.87;;
15706;SDS011;7953;54.302;10.128;2022-10-16T11:52:57;2.17;;;1.37;;
15706;SDS011;7953;54.302;10.128;2022-10-16T11:55:31;3.70;;;1.80;;
15706;SDS011;7953;54.302;10.128;2022-10-16T11:58:03;4.97;;;1.60;;
15706;SDS011;7953;54.302;10.128;2022-10-16T12:00:35;4.90;;;1.80;;
15706;SDS011;7953;54.302;10.128;2022-10-16T12:03:10;6.53;;;1.67;;
15706;SDS011;7953;54.302;10.128;2022-10-16T12:05:50;4.00;;;1.30;;
15706;SDS011;7953;54.302;10.128;2022-10-16T12:08:24;8.03;;;1.93;;
15706;SDS011;7953;54.302;10.128;2022-10-16T12:10:52;4.73;;;1.70;;
15706;SDS011;7953;54.302;10.128;2022-10-16T12:13:30;4.73;;;1.80;;
15706;SDS011;7953;54.302;10.128;2022-10-16T12:16:20;7.50;;;1.93;;
15706;SDS011;7953;54.302;10.128;2022-10-16T12:18:49;5.77;;;1.93;;
15706;SDS011;7953;54.302;10.128;2022-10-16T12:21:37;6.20;;;2.13;;
15706;SDS011;7953;54.302;10.128;2022-10-16T12:24:04;4.73;;;1.90;;
15706;SDS011;7953;54.302;10.128;2022-10-16T12:26:32;4.93;;;1.53;;
15706;SDS011;7953;54.302;10.128;2022-10-16T12:29:11;7.37;;;1.70;;
15706;SDS011;7953;54.302;10.128;2022-10-16T12:31:43;7.13;;;1.90;;
15706;SDS011;7953;54.302;10.128;2022-10-16T12:34:14;5.47;;;2.30;;
15706;SDS011;7953;54.302;10.128;2022-10-16T12:36:50;6.43;;;1.63;;
15706;SDS011;7953;54.302;10.128;2022-10-16T12:39:20;6.13;;;1.60;;
15706;SDS011;7953;54.302;10.128;2022-10-16T12:41:48;7.20;;;2.27;;
15706;SDS011;7953;54.302;10.128;2022-10-16T12:44:31;4.93;;;1.97;;
15706;SDS011;7953;54.302;10.128;2022-10-16T12:46:59;7.37;;;2.37;;
15706;SDS011;7953;54.302;10.128;2022-10-16T12:49:30;6.33;;;1.63;;
15706;SDS011;7953;54.302;10.128;2022-10-16T12:52:03;9.73;;;1.83;;
15706;SDS011;7953;54.302;10.128;2022-10-16T12:54:30;8.73;;;1.67;;
15706;SDS011;7953;54.302;10.128;2022-10-16T12:57:08;9.53;;;2.17;;
15706;SDS011;7953;54.302;10.128;2022-10-16T12:59:53;4.07;;;2.00;;
15706;SDS011;7953;54.302;10.128;2022-10-16T13:02:39;7.43;;;2.03;;
15706;SDS011;7953;54.302;10.128;2022-10-16T13:05:35;5.50;;;1.80;;
15706;SDS011;7953;54.302;10.128;2022-10-16T13:08:20;5.60;;;1.70;;
15706;SDS011;7953;54.302;10.128;2022-10-16T13:10:59;9.27;;;1.77;;
15706;SDS011;7953;54.302;10.128;2022-10-16T13:13:38;8.33;;;2.00;;
15706;SDS011;7953;54.302;10.128;2022-10-16T13:16:18;9.60;;;2.40;;
15706;SDS011;7953;54.302;10.128;2022-10-16T13:18:55;6.93;;;2.13;;
15706;SDS011;7953;54.302;10.128;2022-10-16T13:21:35;6.07;;;2.17;;
15706;SDS011;7953;54.302;10.128;2022-10-16T13:24:14;10.67;;;2.40;;
15706;SDS011;7953;54.302;10.128;2022-10-16T13:26:52;4.93;;;1.60;;
15706;SDS011;7953;54.302;10.128;2022-10-16T13:29:23;5.67;;;2.37;;
15706;SDS011;7953;54.302;10.128;2022-10-16T13:31:50;11.80;;;2.60;;
15706;SDS011;7953;54.302;10.128;2022-10-16T13:34:18;6.07;;;1.83;;
15706;SDS011;7953;54.302;10.128;2022-10-16T13:36:48;6.33;;;2.03;;
15706;SDS011;7953;54.302;10.128;2022-10-16T13:39:22;5.40;;;1.80;;
15706;SDS011;7953;54.302;10.128;2022-10-16T13:42:02;8.77;;;2.00;;
15706;SDS011;7953;54.302;10.128;2022-10-16T13:44:35;5.83;;;1.83;;
15706;SDS011;7953;54.302;10.128;2022-10-16T13:47:05;5.53;;;1.57;;
15706;SDS011;7953;54.302;10.128;2022-10-16T13:49:41;9.67;;;2.47;;
15706;SDS011;7953;54.302;10.128;2022-10-16T13:52:15;9.00;;;1.63;;
15706;SDS011;7953;54.302;10.128;2022-10-16T13:54:45;6.43;;;2.10;;
15706;SDS011;7953;54.302;10.128;2022-10-16T13:57:13;5.97;;;2.07;;
15706;SDS011;7953;54.302;10.128;2022-10-16T13:59:41;7.43;;;2.00;;
15706;SDS011;7953;54.302;10.128;2022-10-16T14:02:13;4.40;;;1.50;;
15706;SDS011;7953;54.302;10.128;2022-10-16T14:04:46;6.87;;;1.50;;
15706;SDS011;7953;54.302;10.128;2022-10-16T14:07:13;8.13;;;2.10;;
15706;SDS011;7953;54.302;10.128;2022-10-16T14:09:47;6.20;;;1.97;;
15706;SDS011;7953;54.302;10.128;2022-10-16T14:12:16;3.23;;;1.63;;
15706;SDS011;7953;54.302;10.128;2022-10-16T14:14:47;7.27;;;1.70;;
15706;SDS011;7953;54.302;10.128;2022-10-16T14:17:18;8.37;;;2.00;;
15706;SDS011;7953;54.302;10.128;2022-10-16T14:19:49;5.97;;;2.10;;
15706;SDS011;7953;54.302;10.128;2022-10-16T14:22:22;6.87;;;1.90;;
15706;SDS011;7953;54.302;10.128;2022-10-16T14:24:55;10.77;;;2.37;;
15706;SDS011;7953;54.302;10.128;2022-10-16T14:27:28;5.80;;;2.20;;
15706;SDS011;7953;54.302;10.128;2022-10-16T14:30:08;8.60;;;2.10;;
15706;SDS011;7953;54.302;10.128;2022-10-16T14:32:40;7.80;;;1.93;;
15706;SDS011;7953;54.302;10.128;2022-10-16T14:35:25;5.73;;;1.63;;
15706;SDS011;7953;54.302;10.128;2022-10-16T14:37:54;7.83;;;1.70;;
15706;SDS011;7953;54.302;10.128;2022-10-16T14:40:24;5.13;;;1.60;;
15706;SDS011;7953;54.302;10.128;2022-10-16T14:42:52;7.60;;;2.10;;
15706;SDS011;7953;54.302;10.128;2022-10-16T14:45:20;8.37;;;1.97;;
15706;SDS011;7953;54.302;10.128;2022-10-16T14:47:49;15.80;;;2.77;;
15706;SDS011;7953;54.302;10.128;2022-10-16T14:50:18;7.87;;;1.63;;
15706;SDS011;7953;54.302;10.128;2022-10-16T14:52:45;5.17;;;2.07;;
15706;SDS011;7953;54.302;10.128;2022-10-16T14:55:12;8.30;;;2.40;;
15706;SDS011;7953;54.302;10.128;2022-10-16T14:57:42;7.80;;;2.37;;
15706;SDS011;7953;54.302;10.128;2022-10-16T15:00:19;9.33;;;1.83;;
15706;SDS011;7953;54.302;10.128;2022-10-16T15:02:48;4.13;;;1.70;;
15706;SDS011;7953;54.302;10.128;2022-10-16T15:05:17;5.43;;;1.63;;
15706;SDS011;7953;54.302;10.128;2022-10-16T15:07:47;10.30;;;2.77;;
15706;SDS011;7953;54.302;10.128;2022-10-16T15:10:15;6.93;;;2.07;;